PWSweather.com
Personal Weather Stations
Station Observations
SELKIRK1
Ontario, Selkirk, ON N0A 1P0

OntarioSelkirk, ON N0A 1P0

Lat: 42.8083652, Lon: -79.94971040000001

Elevation: 583

Station Type: Acurite 5 in 1

http://gavinsurf.com

High Low Average
Temperature 69.8°F21.0°C 68.2°F20.1°C 69.4°F20.8°C
Dew Point 67.7°F19.8°C 66.7°F19.3°C 67.4°F19.7°C
Winds 13.8 mph 22.2 kmh 11.5 mph 18.5 kmh 13.0 mph S20.9 kmh S
Wind Gusts 15.0 mph24.1 kmh 11.5 mph18.5 kmh 13.0 mph20.9 kmh
Humidity 95% 93% 94%
Pressure 31.78 in1076.2 mb 31.78 in1076.2 mb -
Precipitation 0.05 in1.3 mm - -
Hour Temp Dew Point Humidity Winds Wind Gusts Pressure Precip Precip Rate Daily Precip Total
06:33 PM 68.2°F20.1°C 66.7°F19.3°C 95% 13.8 mph S22.2 kmh S 13.8 mph22.2 kmh 31.78 in1076.2 mb - 0.00 in0.0 mm 0.05 in1.3 mm
06:35 PM 69.0°F20.6°C 67.2°F19.6°C 94% 13.8 mph S22.2 kmh S 13.8 mph22.2 kmh 31.78 in1076.2 mb - 0.00 in0.0 mm 0.05 in1.3 mm
06:40 PM 69.6°F20.9°C 67.5°F19.7°C 93% 12.7 mph S20.4 kmh S 15.0 mph24.1 kmh 31.78 in1076.2 mb - 0.00 in0.0 mm 0.05 in1.3 mm
06:45 PM 69.8°F21.0°C 67.7°F19.8°C 93% 12.7 mph SSW20.4 kmh SSW 12.7 mph20.4 kmh 31.78 in1076.2 mb - 0.00 in0.0 mm 0.05 in1.3 mm
06:50 PM 69.8°F21.0°C 67.7°F19.8°C 93% 12.7 mph SSW20.4 kmh SSW 12.7 mph20.4 kmh 31.78 in1076.2 mb - 0.00 in0.0 mm 0.05 in1.3 mm
06:55 PM 69.8°F21.0°C 67.7°F19.8°C 93% 11.5 mph SSW18.5 kmh SSW 11.5 mph18.5 kmh 31.78 in1076.2 mb - 0.00 in0.0 mm 0.05 in1.3 mm
07:00 PM 69.6°F20.9°C 67.8°F19.9°C 94% 4.6 mph S7.4 kmh S 5.8 mph9.3 kmh 31.78 in1076.2 mb - 0.00 in0.0 mm 0.05 in1.3 mm
07:10 PM 67.7°F19.8°C 66.5°F19.2°C 96% 4.6 mph SSW7.4 kmh SSW 4.6 mph7.4 kmh 31.78 in1076.2 mb - 0.00 in0.0 mm 0.05 in1.3 mm
07:15 PM 68.3°F20.2°C 66.8°F19.3°C 95% 8.1 mph S13.0 kmh S 9.2 mph14.8 kmh 31.78 in1076.2 mb - 0.00 in0.0 mm 0.05 in1.3 mm
07:20 PM 68.6°F20.3°C 67.1°F19.5°C 95% 9.2 mph S14.8 kmh S 9.2 mph14.8 kmh 31.78 in1076.2 mb - 0.00 in0.0 mm 0.05 in1.3 mm
07:25 PM 68.9°F20.5°C 67.4°F19.7°C 95% 9.2 mph S14.8 kmh S 13.8 mph22.2 kmh 31.78 in1076.2 mb - 0.00 in0.0 mm 0.05 in1.3 mm
07:30 PM 70.0°F21.1°C 68.2°F20.1°C 94% 10.4 mph SSW16.7 kmh SSW 11.5 mph18.5 kmh 31.78 in1076.2 mb - 0.00 in0.0 mm 0.05 in1.3 mm
07:35 PM 69.3°F20.7°C 67.5°F19.7°C 94% 9.2 mph SSW14.8 kmh SSW 9.2 mph14.8 kmh 31.78 in1076.2 mb - 0.00 in0.0 mm 0.05 in1.3 mm
07:40 PM 68.7°F20.4°C 67.5°F19.7°C 96% 5.8 mph SW9.3 kmh SW 5.8 mph9.3 kmh 31.78 in1076.2 mb - 0.00 in0.0 mm 0.05 in1.3 mm
07:45 PM 67.9°F19.9°C 66.4°F19.1°C 95% 2.3 mph S3.7 kmh S 2.3 mph3.7 kmh 31.78 in1076.2 mb - 0.00 in0.0 mm 0.05 in1.3 mm
07:50 PM 67.3°F19.6°C 66.1°F18.9°C 96% 2.3 mph S3.7 kmh S 3.5 mph5.6 kmh 31.78 in1076.2 mb - 0.00 in0.0 mm 0.05 in1.3 mm
07:55 PM 67.1°F19.5°C 66.2°F19.0°C 97% 4.6 mph SSW7.4 kmh SSW 4.6 mph7.4 kmh 31.78 in1076.2 mb - 0.00 in0.0 mm 0.05 in1.3 mm
08:00 PM 67.1°F19.5°C 66.2°F19.0°C 97% 2.3 mph SSW3.7 kmh SSW 4.6 mph7.4 kmh 31.78 in1076.2 mb - 0.00 in0.0 mm 0.05 in1.3 mm
08:10 PM 67.1°F19.5°C 66.5°F19.2°C 98% 3.5 mph SW5.6 kmh SW 4.6 mph7.4 kmh 31.78 in1076.2 mb - 0.00 in0.0 mm 0.05 in1.3 mm
08:15 PM 66.9°F19.4°C 66.3°F19.1°C 98% 3.5 mph WSW5.6 kmh WSW 3.5 mph5.6 kmh 31.78 in1076.2 mb - 0.00 in0.0 mm 0.05 in1.3 mm
08:20 PM 66.8°F19.3°C 66.2°F19.0°C 98% 4.6 mph SW7.4 kmh SW 6.9 mph11.1 kmh 31.78 in1076.2 mb - 0.00 in0.0 mm 0.05 in1.3 mm
08:25 PM 66.9°F19.4°C 66.3°F19.1°C 98% 4.6 mph SSW7.4 kmh SSW 4.6 mph7.4 kmh 31.78 in1076.2 mb - 0.00 in0.0 mm 0.05 in1.3 mm
08:30 PM 66.9°F19.4°C 66.3°F19.1°C 98% 5.8 mph SW9.3 kmh SW 5.8 mph9.3 kmh 31.78 in1076.2 mb - 0.00 in0.0 mm 0.05 in1.3 mm
08:35 PM 66.9°F19.4°C 66.6°F19.2°C 99% 4.6 mph SSW7.4 kmh SSW 6.9 mph11.1 kmh 31.78 in1076.2 mb - 0.00 in0.0 mm 0.05 in1.3 mm
08:40 PM 66.9°F19.4°C 66.6°F19.2°C 99% 4.6 mph SSW7.4 kmh SSW 5.8 mph9.3 kmh 31.78 in1076.2 mb - 0.00 in0.0 mm 0.05 in1.3 mm
08:45 PM 66.8°F19.3°C 66.5°F19.2°C 99% 3.5 mph SW5.6 kmh SW 3.5 mph5.6 kmh 31.78 in1076.2 mb - 0.00 in0.0 mm 0.05 in1.3 mm
08:50 PM 66.6°F19.2°C 66.3°F19.1°C 99% 3.5 mph SSW5.6 kmh SSW 5.8 mph9.3 kmh 31.78 in1076.2 mb - 0.00 in0.0 mm 0.05 in1.3 mm
08:55 PM 66.6°F19.2°C 66.3°F19.1°C 99% 4.6 mph SSW7.4 kmh SSW 5.8 mph9.3 kmh 31.78 in1076.2 mb - 0.00 in0.0 mm 0.05 in1.3 mm
09:00 PM 66.6°F19.2°C 66.3°F19.1°C 99% 3.5 mph S5.6 kmh S 4.6 mph7.4 kmh 31.78 in1076.2 mb - 0.00 in0.0 mm 0.05 in1.3 mm
09:10 PM 66.4°F19.1°C 66.1°F18.9°C 99% 3.5 mph SSW5.6 kmh SSW 4.6 mph7.4 kmh 31.78 in1076.2 mb - 0.00 in0.0 mm 0.05 in1.3 mm
09:15 PM 66.2°F19.0°C 65.9°F18.8°C 99% 4.6 mph SSW7.4 kmh SSW 5.8 mph9.3 kmh 31.78 in1076.2 mb - 0.00 in0.0 mm 0.05 in1.3 mm
09:20 PM 66.9°F19.4°C 66.6°F19.2°C 99% 5.8 mph SSW9.3 kmh SSW 9.2 mph14.8 kmh 31.78 in1076.2 mb - 0.00 in0.0 mm 0.05 in1.3 mm
09:25 PM 67.4°F19.7°C 66.9°F19.4°C 98% 5.8 mph SSW9.3 kmh SSW 5.8 mph9.3 kmh 31.78 in1076.2 mb - 0.00 in0.0 mm 0.05 in1.3 mm
09:30 PM 67.1°F19.5°C 66.5°F19.2°C 98% 4.6 mph SW7.4 kmh SW 4.6 mph7.4 kmh 31.78 in1076.2 mb - 0.00 in0.0 mm 0.05 in1.3 mm
09:35 PM 66.9°F19.4°C 66.3°F19.1°C 98% 3.5 mph SW5.6 kmh SW 3.5 mph5.6 kmh 31.78 in1076.2 mb - 0.00 in0.0 mm 0.05 in1.3 mm
09:40 PM 66.8°F19.3°C 66.5°F19.2°C 99% 2.3 mph WSW3.7 kmh WSW 3.5 mph5.6 kmh 31.78 in1076.2 mb - 0.00 in0.0 mm 0.05 in1.3 mm
09:45 PM 67.1°F19.5°C 66.8°F19.3°C 99% 5.8 mph SW9.3 kmh SW 5.8 mph9.3 kmh 31.78 in1076.2 mb - 0.00 in0.0 mm 0.05 in1.3 mm
09:50 PM 67.1°F19.5°C 66.8°F19.3°C 99% 2.3 mph SW3.7 kmh SW 3.5 mph5.6 kmh 31.78 in1076.2 mb - 0.00 in0.0 mm 0.05 in1.3 mm
09:55 PM 67.0°F19.4°C 66.7°F19.3°C 99% 2.3 mph W3.7 kmh W 2.3 mph3.7 kmh 31.78 in1076.2 mb - 0.00 in0.0 mm 0.05 in1.3 mm
10:00 PM 66.9°F19.4°C 66.6°F19.2°C 99% 2.3 mph W3.7 kmh W 2.3 mph3.7 kmh 31.78 in1076.2 mb - 0.00 in0.0 mm 0.05 in1.3 mm
10:10 PM 66.8°F19.3°C 66.5°F19.2°C 99% 2.3 mph WSW3.7 kmh WSW 4.6 mph7.4 kmh 31.78 in1076.2 mb - 0.00 in0.0 mm 0.05 in1.3 mm
10:15 PM 66.8°F19.3°C 66.5°F19.2°C 99% 2.3 mph WSW3.7 kmh WSW 4.6 mph7.4 kmh 31.78 in1076.2 mb - 0.00 in0.0 mm 0.05 in1.3 mm
10:20 PM 66.8°F19.3°C 66.5°F19.2°C 99% 3.5 mph SW5.6 kmh SW 3.5 mph5.6 kmh 31.78 in1076.2 mb - 0.00 in0.0 mm 0.05 in1.3 mm
10:25 PM 67.4°F19.7°C 66.8°F19.3°C 98% 5.8 mph SSW9.3 kmh SSW 6.9 mph11.1 kmh 31.78 in1076.2 mb - 0.00 in0.0 mm 0.05 in1.3 mm
10:30 PM 67.7°F19.8°C 67.1°F19.5°C 98% 4.6 mph S7.4 kmh S 6.9 mph11.1 kmh 31.78 in1076.2 mb - 0.00 in0.0 mm 0.05 in1.3 mm
10:35 PM 67.8°F19.9°C 66.9°F19.4°C 97% 4.6 mph SW7.4 kmh SW 5.8 mph9.3 kmh 31.78 in1076.2 mb - 0.00 in0.0 mm 0.05 in1.3 mm
10:40 PM 67.7°F19.8°C 66.8°F19.3°C 97% 3.5 mph WNW5.6 kmh WNW 4.6 mph7.4 kmh 31.78 in1076.2 mb - 0.00 in0.0 mm 0.05 in1.3 mm
10:45 PM 67.5°F19.7°C 66.6°F19.2°C 97% 3.5 mph W5.6 kmh W 4.6 mph7.4 kmh 31.78 in1076.2 mb - 0.00 in0.0 mm 0.05 in1.3 mm
10:50 PM 67.5°F19.7°C 66.9°F19.4°C 98% 3.5 mph SW5.6 kmh SW 5.8 mph9.3 kmh 31.78 in1076.2 mb - 0.00 in0.0 mm 0.05 in1.3 mm
10:55 PM 67.5°F19.7°C 66.9°F19.4°C 98% 3.5 mph WSW5.6 kmh WSW 5.8 mph9.3 kmh 31.78 in1076.2 mb - 0.00 in0.0 mm 0.05 in1.3 mm
11:00 PM 67.3°F19.6°C 66.7°F19.3°C 98% 3.5 mph SSW5.6 kmh SSW 4.6 mph7.4 kmh 31.78 in1076.2 mb - 0.00 in0.0 mm 0.00 in0.0 mm
11:10 PM 67.3°F19.6°C 66.7°F19.3°C 98% 3.5 mph WSW5.6 kmh WSW 5.8 mph9.3 kmh 31.78 in1076.2 mb - 0.00 in0.0 mm 0.00 in0.0 mm
11:15 PM 67.1°F19.5°C 66.5°F19.2°C 98% 4.6 mph WSW7.4 kmh WSW 5.8 mph9.3 kmh 31.78 in1076.2 mb - 0.00 in0.0 mm 0.00 in0.0 mm
11:20 PM 67.1°F19.5°C 66.8°F19.3°C 99% 4.6 mph SW7.4 kmh SW 5.8 mph9.3 kmh 31.78 in1076.2 mb - 0.00 in0.0 mm 0.00 in0.0 mm
11:25 PM 67.3°F19.6°C 67.0°F19.4°C 99% 5.8 mph SW9.3 kmh SW 6.9 mph11.1 kmh 31.78 in1076.2 mb - 0.00 in0.0 mm 0.00 in0.0 mm
11:30 PM 67.3°F19.6°C 67.0°F19.4°C 99% 3.5 mph WSW5.6 kmh WSW 4.6 mph7.4 kmh 31.78 in1076.2 mb - 0.00 in0.0 mm 0.00 in0.0 mm
11:35 PM 67.3°F19.6°C 67.0°F19.4°C 99% 3.5 mph SW5.6 kmh SW 4.6 mph7.4 kmh 31.78 in1076.2 mb - 0.00 in0.0 mm 0.00 in0.0 mm
11:40 PM 67.1°F19.5°C 66.8°F19.3°C 99% 5.8 mph SW9.3 kmh SW 5.8 mph9.3 kmh 31.78 in1076.2 mb - 0.00 in0.0 mm 0.00 in0.0 mm
11:45 PM 67.1°F19.5°C 66.8°F19.3°C 99% 4.6 mph WSW7.4 kmh WSW 4.6 mph7.4 kmh 31.78 in1076.2 mb - 0.00 in0.0 mm 0.00 in0.0 mm
11:50 PM 67.1°F19.5°C 66.8°F19.3°C 99% 4.6 mph WSW7.4 kmh WSW 6.9 mph11.1 kmh 31.78 in1076.2 mb - 0.00 in0.0 mm 0.00 in0.0 mm
11:55 PM 67.3°F19.6°C 67.0°F19.4°C 99% 5.8 mph SW9.3 kmh SW 9.2 mph14.8 kmh 31.78 in1076.2 mb - 0.00 in0.0 mm 0.00 in0.0 mm